createdAt,value
2018-01-14T00:00:20.077Z,3.50
2018-01-14T00:03:25.868Z,3.50
2018-01-14T00:06:30.741Z,3.70
2018-01-14T00:09:35.938Z,3.70
2018-01-14T00:12:41.597Z,3.80
2018-01-14T00:15:46.749Z,3.80
2018-01-14T00:18:52.329Z,3.80
2018-01-14T00:21:57.769Z,3.80
2018-01-14T00:25:03.261Z,3.80
2018-01-14T00:28:08.622Z,3.80
2018-01-14T00:31:13.553Z,3.80
2018-01-14T00:34:19.577Z,3.90
2018-01-14T00:37:26.030Z,3.90
2018-01-14T00:40:31.611Z,3.90
2018-01-14T00:43:37.361Z,3.80
2018-01-14T00:46:42.882Z,3.80
2018-01-14T00:49:48.397Z,3.80
2018-01-14T00:52:54.124Z,3.70
2018-01-14T00:55:59.402Z,3.60
2018-01-14T00:59:04.788Z,3.50
2018-01-14T01:02:10.261Z,3.50
2018-01-14T01:05:16.127Z,3.40
2018-01-14T01:08:21.669Z,3.40
2018-01-14T01:11:27.353Z,3.40
2018-01-14T01:14:33.124Z,3.30
2018-01-14T01:17:39.268Z,3.30
2018-01-14T01:20:45.845Z,3.30
2018-01-14T01:23:51.365Z,3.30
2018-01-14T01:26:57.002Z,3.30
2018-01-14T01:30:02.272Z,3.40
2018-01-14T01:33:08.025Z,3.30
2018-01-14T01:36:13.378Z,3.20
2018-01-14T01:39:20.990Z,3.20
2018-01-14T01:42:26.277Z,3.20
2018-01-14T01:45:31.117Z,3.10
2018-01-14T01:48:36.085Z,3.10
2018-01-14T01:51:41.163Z,3.00
2018-01-14T01:54:46.418Z,3.00
2018-01-14T01:57:51.345Z,2.90
2018-01-14T02:00:57.440Z,2.80
2018-01-14T02:04:03.505Z,2.80
2018-01-14T02:07:08.397Z,2.90
2018-01-14T02:10:13.210Z,2.90
2018-01-14T02:13:18.450Z,2.70
2018-01-14T02:16:25.034Z,2.50
2018-01-14T02:19:31.377Z,2.60
2018-01-14T02:22:37.058Z,2.60
2018-01-14T02:25:43.178Z,2.30
2018-01-14T02:28:49.249Z,2.20
2018-01-14T02:31:55.854Z,2.10
2018-01-14T02:35:00.685Z,2.10
2018-01-14T02:38:05.545Z,2.10
2018-01-14T02:41:10.847Z,2.20
2018-01-14T02:44:15.825Z,2.40
2018-01-14T02:47:21.661Z,2.20
2018-01-14T02:50:27.302Z,2.20
2018-01-14T02:53:32.190Z,2.00
2018-01-14T02:56:37.978Z,2.00
2018-01-14T02:59:43.053Z,2.00
2018-01-14T03:02:48.750Z,1.90
2018-01-14T03:05:55.236Z,1.80
2018-01-14T03:09:00.797Z,1.80
2018-01-14T03:12:05.810Z,1.90
2018-01-14T03:15:10.944Z,1.80
2018-01-14T03:18:16.591Z,1.80
2018-01-14T03:21:21.946Z,1.70
2018-01-14T03:24:27.389Z,1.70
2018-01-14T03:27:32.045Z,1.70
2018-01-14T03:30:37.749Z,1.80
2018-01-14T03:33:43.665Z,1.60
2018-01-14T03:36:49.260Z,1.60
2018-01-14T03:39:55.637Z,1.60
2018-01-14T03:43:00.746Z,1.60
2018-01-14T03:46:06.641Z,1.90
2018-01-14T03:49:12.153Z,1.80
2018-01-14T03:52:17.538Z,1.90
2018-01-14T03:55:22.636Z,2.00
2018-01-14T03:58:27.897Z,2.00
2018-01-14T04:01:33.457Z,2.00
2018-01-14T04:04:39.021Z,2.00
2018-01-14T04:07:44.158Z,1.90
2018-01-14T04:10:50.253Z,1.80
2018-01-14T04:13:55.413Z,1.80
2018-01-14T04:17:01.072Z,1.60
2018-01-14T04:20:06.561Z,1.60
2018-01-14T04:23:12.305Z,1.60
2018-01-14T04:26:18.062Z,1.60
2018-01-14T04:29:23.745Z,1.60
2018-01-14T04:32:29.569Z,1.40
2018-01-14T04:35:34.893Z,1.40
2018-01-14T04:38:40.345Z,1.50
2018-01-14T04:41:45.432Z,1.40
2018-01-14T04:44:50.983Z,1.40
2018-01-14T04:47:55.925Z,1.40
2018-01-14T04:51:01.061Z,1.40
2018-01-14T04:54:06.133Z,1.30
2018-01-14T04:57:12.297Z,1.20
2018-01-14T05:00:17.665Z,1.40
2018-01-14T05:03:24.114Z,1.50
2018-01-14T05:06:28.931Z,1.50
2018-01-14T05:09:34.341Z,1.60
2018-01-14T05:12:39.629Z,1.80
2018-01-14T05:15:45.441Z,1.90
2018-01-14T05:18:50.702Z,1.80
2018-01-14T05:21:56.418Z,1.90
2018-01-14T05:25:01.685Z,2.00
2018-01-14T05:28:06.533Z,2.10
2018-01-14T05:31:12.442Z,2.10
2018-01-14T05:34:17.969Z,2.10
2018-01-14T05:37:23.169Z,2.20
2018-01-14T05:40:28.250Z,2.30
2018-01-14T05:43:34.645Z,2.30
2018-01-14T05:46:40.081Z,2.30
2018-01-14T05:49:45.598Z,2.30
2018-01-14T05:52:51.009Z,2.30
2018-01-14T05:55:56.806Z,2.20
2018-01-14T05:59:02.201Z,2.20
2018-01-14T06:02:08.497Z,2.40
2018-01-14T06:05:14.894Z,2.50
2018-01-14T06:08:21.098Z,2.50
2018-01-14T06:11:27.530Z,2.50
2018-01-14T06:14:32.529Z,2.50
2018-01-14T06:17:38.857Z,2.70
2018-01-14T06:20:44.664Z,2.70
2018-01-14T06:23:49.646Z,2.70
2018-01-14T06:26:54.838Z,2.70
2018-01-14T06:30:01.138Z,2.80
2018-01-14T06:33:06.677Z,2.80
2018-01-14T06:36:12.957Z,3.00
2018-01-14T06:39:18.169Z,2.90
2018-01-14T06:42:23.112Z,2.90
2018-01-14T06:45:28.741Z,2.90
2018-01-14T06:48:34.351Z,2.90
2018-01-14T06:51:39.675Z,2.90
2018-01-14T06:54:45.166Z,2.90
2018-01-14T06:57:52.029Z,2.90
2018-01-14T07:00:57.602Z,3.00
2018-01-14T07:04:03.373Z,3.10
2018-01-14T07:07:08.722Z,3.10
2018-01-14T07:10:14.337Z,3.10
2018-01-14T07:13:19.642Z,3.10
2018-01-14T07:16:24.393Z,3.20
2018-01-14T07:19:29.425Z,3.10
2018-01-14T07:22:35.225Z,3.10
2018-01-14T07:25:40.377Z,3.10
2018-01-14T07:28:45.481Z,3.20
2018-01-14T07:31:50.518Z,3.20
2018-01-14T07:34:56.097Z,3.20
2018-01-14T07:38:01.090Z,3.30
2018-01-14T07:41:06.797Z,3.30
2018-01-14T07:44:12.325Z,3.30
2018-01-14T07:47:18.105Z,3.30
2018-01-14T07:50:23.077Z,3.30
2018-01-14T07:53:28.431Z,3.20
2018-01-14T07:56:34.127Z,3.20
2018-01-14T07:59:39.593Z,3.30
2018-01-14T08:02:45.862Z,3.30
2018-01-14T08:05:50.889Z,3.30
2018-01-14T08:08:57.313Z,3.30
2018-01-14T08:12:02.662Z,3.30
2018-01-14T08:15:07.686Z,3.40
2018-01-14T08:18:12.954Z,3.40
2018-01-14T08:21:18.869Z,3.40
2018-01-14T08:24:24.502Z,3.40
2018-01-14T08:27:29.441Z,3.40
2018-01-14T08:30:35.478Z,3.40
2018-01-14T08:33:41.993Z,3.40
2018-01-14T08:36:47.365Z,3.40
2018-01-14T08:39:52.445Z,3.50
2018-01-14T08:42:58.929Z,3.50
2018-01-14T08:46:03.866Z,3.60
2018-01-14T08:49:09.613Z,3.70
2018-01-14T08:52:15.714Z,3.70
2018-01-14T08:55:21.010Z,3.70
2018-01-14T08:58:26.625Z,3.80
2018-01-14T09:01:38.361Z,3.90
2018-01-14T09:04:44.447Z,3.80
2018-01-14T09:07:49.473Z,3.80
2018-01-14T09:10:54.945Z,3.90
2018-01-14T09:14:00.416Z,3.90
2018-01-14T09:17:05.518Z,3.90
2018-01-14T09:20:11.003Z,4.00
2018-01-14T09:23:16.564Z,4.00
2018-01-14T09:26:22.402Z,4.10
2018-01-14T09:29:27.486Z,3.90
2018-01-14T09:32:33.289Z,4.10
2018-01-14T09:35:39.617Z,4.10
2018-01-14T09:38:44.743Z,4.10
2018-01-14T09:41:49.889Z,4.00
2018-01-14T09:44:56.314Z,4.10
2018-01-14T09:48:01.825Z,4.10
2018-01-14T09:51:06.946Z,4.10
2018-01-14T09:54:13.359Z,4.20
2018-01-14T09:57:18.831Z,4.30
2018-01-14T10:00:23.976Z,4.30
2018-01-14T10:03:29.311Z,4.30
2018-01-14T10:06:35.517Z,4.20
2018-01-14T10:09:41.280Z,4.20
2018-01-14T10:12:46.505Z,4.30
2018-01-14T10:15:59.734Z,4.20
2018-01-14T10:19:05.396Z,4.30
2018-01-14T10:22:11.354Z,4.20
2018-01-14T10:25:16.251Z,4.20
2018-01-14T10:28:21.856Z,4.30
2018-01-14T10:31:27.354Z,4.40
2018-01-14T10:34:32.353Z,4.30
2018-01-14T10:37:37.277Z,4.30
2018-01-14T10:40:42.674Z,4.30
2018-01-14T10:43:48.438Z,4.60
2018-01-14T10:46:53.935Z,4.60
2018-01-14T10:49:59.510Z,4.50
2018-01-14T10:53:04.351Z,4.60
2018-01-14T10:56:10.058Z,4.60
2018-01-14T10:59:15.342Z,4.60
2018-01-14T11:02:20.904Z,4.80
2018-01-14T11:05:26.802Z,4.80
2018-01-14T11:08:32.113Z,4.80
2018-01-14T11:11:37.393Z,4.80
2018-01-14T11:14:42.970Z,4.90
2018-01-14T11:17:48.426Z,4.90
2018-01-14T11:20:54.094Z,5.00
2018-01-14T11:23:59.685Z,5.00
2018-01-14T11:27:05.366Z,5.00
2018-01-14T11:30:14.982Z,5.00
2018-01-14T11:33:20.249Z,4.90
2018-01-14T11:36:25.313Z,4.80
2018-01-14T11:39:30.869Z,4.80
2018-01-14T11:42:37.341Z,4.80
2018-01-14T11:45:42.377Z,4.80
2018-01-14T11:48:48.781Z,4.90
2018-01-14T11:51:55.274Z,5.00
2018-01-14T11:55:01.497Z,4.90
2018-01-14T11:58:06.542Z,4.90
2018-01-14T12:01:11.976Z,5.40
2018-01-14T12:04:16.862Z,5.20
2018-01-14T12:07:21.990Z,5.30
2018-01-14T12:10:27.585Z,5.40
2018-01-14T12:13:35.453Z,5.10
2018-01-14T12:16:40.162Z,5.10
2018-01-14T12:19:45.217Z,5.00
2018-01-14T12:22:50.757Z,4.90
2018-01-14T12:25:57.367Z,4.80
2018-01-14T12:29:02.689Z,4.80
2018-01-14T12:32:08.422Z,5.00
2018-01-14T12:35:15.729Z,5.20
2018-01-14T12:38:21.167Z,5.20
2018-01-14T12:41:26.361Z,5.20
2018-01-14T12:44:32.428Z,5.10
2018-01-14T12:47:37.385Z,5.10
2018-01-14T12:50:42.604Z,5.10
2018-01-14T12:53:47.407Z,5.20
2018-01-14T12:56:52.867Z,5.30
2018-01-14T12:59:58.769Z,5.00
2018-01-14T13:03:04.881Z,5.20
2018-01-14T13:06:09.849Z,5.20
2018-01-14T13:09:14.889Z,5.10
2018-01-14T13:12:20.094Z,5.10
2018-01-14T13:15:25.953Z,5.10
2018-01-14T13:18:32.157Z,5.20
2018-01-14T13:21:37.723Z,5.20
2018-01-14T13:24:42.765Z,5.30
2018-01-14T13:27:48.550Z,5.20
2018-01-14T13:30:53.394Z,5.00
2018-01-14T13:33:58.509Z,4.90
2018-01-14T13:37:04.617Z,4.90
2018-01-14T13:40:09.821Z,5.10
2018-01-14T13:43:16.071Z,5.20
2018-01-14T13:46:21.725Z,5.20
2018-01-14T13:49:27.873Z,5.30
2018-01-14T13:52:33.177Z,5.30
2018-01-14T13:55:39.190Z,5.20
2018-01-14T13:58:44.965Z,5.20
2018-01-14T14:01:50.846Z,5.20
2018-01-14T14:04:56.888Z,4.90
2018-01-14T14:08:03.030Z,4.90
2018-01-14T14:11:08.570Z,4.90
2018-01-14T14:14:14.099Z,4.90
2018-01-14T14:17:19.166Z,5.10
2018-01-14T14:20:25.353Z,5.40
2018-01-14T14:23:31.673Z,5.40
2018-01-14T14:26:36.730Z,5.40
2018-01-14T14:29:41.673Z,5.20
2018-01-14T14:32:47.869Z,4.80
2018-01-14T14:35:53.334Z,4.80
2018-01-14T14:38:58.997Z,4.50
2018-01-14T14:42:04.465Z,4.50
2018-01-14T14:45:09.981Z,4.50
2018-01-14T14:48:14.813Z,4.40
2018-01-14T14:51:20.069Z,4.30
2018-01-14T14:54:24.886Z,4.30
2018-01-14T14:57:31.149Z,4.20
2018-01-14T15:00:36.122Z,4.20
2018-01-14T15:03:40.960Z,4.20
2018-01-14T15:06:46.647Z,4.10
2018-01-14T15:09:52.373Z,4.20
2018-01-14T15:12:57.737Z,4.10
2018-01-14T15:16:03.009Z,4.00
2018-01-14T15:19:08.397Z,4.00
2018-01-14T15:22:14.066Z,4.00
2018-01-14T15:25:19.293Z,3.90
2018-01-14T15:28:24.969Z,3.90
2018-01-14T15:31:30.537Z,3.80
2018-01-14T15:34:36.289Z,3.70
2018-01-14T15:37:41.975Z,3.60
2018-01-14T15:40:47.201Z,3.50
2018-01-14T15:43:52.896Z,3.50
2018-01-14T15:46:57.741Z,3.40
2018-01-14T15:50:03.370Z,3.30
2018-01-14T15:53:08.970Z,3.30
2018-01-14T15:56:13.925Z,3.30
2018-01-14T15:59:19.129Z,3.20
2018-01-14T16:02:25.163Z,3.00
2018-01-14T16:05:31.702Z,3.00
2018-01-14T16:08:36.508Z,3.00
2018-01-14T16:11:42.789Z,2.80
2018-01-14T16:14:48.473Z,2.80
2018-01-14T16:17:54.229Z,2.80
2018-01-14T16:20:59.498Z,2.70
2018-01-14T16:24:04.974Z,2.70
2018-01-14T16:27:10.496Z,2.70
2018-01-14T16:30:15.625Z,2.60
2018-01-14T16:33:21.251Z,2.40
2018-01-14T16:36:26.415Z,2.40
2018-01-14T16:39:31.642Z,2.40
2018-01-14T16:42:36.645Z,2.30
2018-01-14T16:45:41.189Z,2.40
2018-01-14T16:48:46.105Z,2.30
2018-01-14T16:51:50.793Z,2.20
2018-01-14T16:54:56.318Z,2.10
2018-01-14T16:58:01.678Z,2.10
2018-01-14T17:01:06.470Z,2.20
2018-01-14T17:04:12.094Z,2.20
2018-01-14T17:07:17.189Z,2.20
2018-01-14T17:10:22.934Z,2.10
2018-01-14T17:13:28.017Z,2.00
2018-01-14T17:16:34.034Z,1.80
2018-01-14T17:19:39.922Z,1.80
2018-01-14T17:22:45.254Z,1.80
2018-01-14T17:25:50.929Z,1.80
2018-01-14T17:28:56.601Z,1.60
2018-01-14T17:32:02.387Z,1.60
2018-01-14T17:35:07.262Z,1.60
2018-01-14T17:38:12.674Z,1.60
2018-01-14T17:41:19.209Z,1.40
2018-01-14T17:44:24.593Z,1.30
2018-01-14T17:47:30.291Z,1.30
2018-01-14T17:50:35.873Z,1.40
2018-01-14T17:53:41.185Z,1.30
2018-01-14T17:56:45.882Z,1.40
2018-01-14T17:59:51.726Z,1.50
2018-01-14T18:02:57.308Z,1.50
2018-01-14T18:06:03.082Z,1.50
2018-01-14T18:09:08.433Z,1.50
2018-01-14T18:12:14.525Z,1.50
2018-01-14T18:15:19.863Z,1.50
2018-01-14T18:18:25.438Z,1.50
2018-01-14T18:21:30.506Z,1.60
2018-01-14T18:24:35.941Z,1.50
2018-01-14T18:27:41.654Z,1.50
2018-01-14T18:30:46.296Z,1.50
2018-01-14T18:33:51.967Z,1.50
2018-01-14T18:36:57.098Z,1.40
2018-01-14T18:40:02.945Z,1.40
2018-01-14T18:43:08.638Z,1.30
2018-01-14T18:46:24.609Z,1.30
2018-01-14T18:49:31.132Z,1.10
2018-01-14T18:52:36.390Z,1.10
2018-01-14T18:55:41.600Z,1.20
2018-01-14T18:58:46.938Z,1.20
2018-01-14T19:01:52.214Z,1.20
2018-01-14T19:04:57.517Z,1.20
2018-01-14T19:08:02.522Z,1.20
2018-01-14T19:11:07.721Z,1.10
2018-01-14T19:14:12.718Z,1.00
2018-01-14T19:17:18.335Z,1.00
2018-01-14T19:20:24.171Z,1.00
2018-01-14T19:23:29.278Z,0.90
2018-01-14T19:26:34.146Z,0.90
2018-01-14T19:29:39.590Z,1.00
2018-01-14T19:32:45.356Z,1.00
2018-01-14T19:35:51.193Z,0.90
2018-01-14T19:38:56.999Z,0.90
2018-01-14T19:42:02.173Z,0.70
2018-01-14T19:45:07.813Z,0.50
2018-01-14T19:48:13.634Z,0.50
2018-01-14T19:51:18.658Z,0.30
2018-01-14T19:54:23.942Z,0.10
2018-01-14T19:57:29.522Z,-0.10
2018-01-14T20:00:34.652Z,-0.10
2018-01-14T20:03:39.660Z,-0.10
2018-01-14T20:06:44.905Z,-0.10
2018-01-14T20:09:49.889Z,-0.10
2018-01-14T20:12:54.906Z,0.00
2018-01-14T20:16:00.449Z,-0.10
2018-01-14T20:19:05.927Z,-0.20
2018-01-14T20:22:12.051Z,-0.30
2018-01-14T20:25:18.191Z,-0.50
2018-01-14T20:28:24.034Z,-0.50
2018-01-14T20:31:29.405Z,-0.60
2018-01-14T20:34:35.233Z,-0.70
2018-01-14T20:37:41.005Z,-0.80
2018-01-14T20:40:46.377Z,-0.90
2018-01-14T20:43:52.020Z,-1.00
2018-01-14T20:46:56.950Z,-0.90
2018-01-14T20:50:02.585Z,-0.50
2018-01-14T20:53:08.378Z,-0.50
2018-01-14T20:56:13.232Z,-0.60
2018-01-14T20:59:18.460Z,-0.40
2018-01-14T21:02:23.869Z,-0.40
2018-01-14T21:05:29.350Z,-0.40
2018-01-14T21:08:35.053Z,-0.70
2018-01-14T21:11:40.308Z,-0.70
2018-01-14T21:14:45.565Z,-0.70
2018-01-14T21:17:51.003Z,-0.80
2018-01-14T21:20:55.819Z,-0.90
2018-01-14T21:24:01.134Z,-1.00
2018-01-14T21:27:05.958Z,-1.00
2018-01-14T21:30:11.314Z,-1.10
2018-01-14T21:33:16.982Z,-1.10
2018-01-14T21:36:22.477Z,-1.30
2018-01-14T21:39:28.049Z,-1.30
2018-01-14T21:42:33.429Z,-1.30
2018-01-14T21:45:39.353Z,-1.30
2018-01-14T21:48:46.501Z,-1.30
2018-01-14T21:51:51.842Z,-1.30
2018-01-14T21:54:57.376Z,-1.30
2018-01-14T21:58:02.729Z,-1.30
2018-01-14T22:01:07.781Z,-1.30
2018-01-14T22:04:12.511Z,-1.40
2018-01-14T22:07:17.785Z,-1.50
2018-01-14T22:10:22.757Z,-1.60
2018-01-14T22:13:28.206Z,-1.60
2018-01-14T22:16:33.262Z,-1.70
2018-01-14T22:19:38.329Z,-1.70
2018-01-14T22:22:43.694Z,-1.70
2018-01-14T22:25:48.573Z,-1.70
2018-01-14T22:28:54.045Z,-1.80
2018-01-14T22:32:00.297Z,-2.10
2018-01-14T22:35:06.549Z,-2.20
2018-01-14T22:38:12.009Z,-2.30
2018-01-14T22:41:16.965Z,-2.10
2018-01-14T22:44:22.833Z,-2.00
2018-01-14T22:47:27.563Z,-2.00
2018-01-14T22:50:33.473Z,-2.00
2018-01-14T22:53:39.174Z,-2.10
2018-01-14T22:56:44.195Z,-2.00
2018-01-14T22:59:49.578Z,-2.00
2018-01-14T23:02:55.017Z,-2.00
2018-01-14T23:05:59.802Z,-2.00
2018-01-14T23:09:05.362Z,-2.00
2018-01-14T23:12:10.685Z,-2.10
2018-01-14T23:15:16.421Z,-2.40
2018-01-14T23:18:22.076Z,-2.40
2018-01-14T23:21:27.154Z,-2.40
2018-01-14T23:24:33.321Z,-2.10
2018-01-14T23:27:39.561Z,-2.00
2018-01-14T23:30:45.094Z,-2.00
2018-01-14T23:33:49.981Z,-1.80
2018-01-14T23:36:55.546Z,-1.80
2018-01-14T23:40:02.022Z,-2.10
2018-01-14T23:43:08.273Z,-2.30
2018-01-14T23:46:12.949Z,-2.30
2018-01-14T23:49:17.797Z,-2.30
2018-01-14T23:52:23.483Z,-2.30
2018-01-14T23:55:28.229Z,-2.30
2018-01-14T23:58:33.633Z,-2.40
